Time;durP1;ratioP1;P1;durP2;ratioP2;P2;SDS_P1;SDS_P2;PMS_P1;PMS_P2;Temp;Humidity;BMP_temperature;BMP_pressure;BME280_temperature;BME280_humidity;BME280_pressure;Samples;Min_cycle;Max_cycle;Signal;HPM_P1;HPM_P2
2022/05/09 00:00:17;;;;;;;10.82;9.73;;;19.60;60.70;;;;;;5087675;28;20110;-65
2022/05/09 00:02:43;;;;;;;11.63;9.93;;;19.50;60.70;;;;;;5082248;28;20028;-64
2022/05/09 00:05:13;;;;;;;12.13;10.05;;;19.60;60.70;;;;;;5088392;28;20016;-64
2022/05/09 00:07:39;;;;;;;17.17;9.75;;;19.50;60.70;;;;;;5080720;28;20028;-69
2022/05/09 00:10:05;;;;;;;11.45;10.10;;;19.50;60.70;;;;;;5080576;28;20022;-63
2022/05/09 00:12:32;;;;;;;14.52;10.25;;;19.50;60.70;;;;;;5082710;28;20107;-66
2022/05/09 00:14:57;;;;;;;10.63;9.25;;;19.60;60.70;;;;;;5081008;28;20044;-65
2022/05/09 00:17:23;;;;;;;10.73;9.57;;;19.50;60.50;;;;;;5075705;28;20028;-70
2022/05/09 00:19:49;;;;;;;11.43;9.60;;;19.50;60.50;;;;;;5086309;28;20095;-64
2022/05/09 00:22:14;;;;;;;11.52;9.75;;;19.60;60.50;;;;;;5082394;28;20060;-65
2022/05/09 00:24:40;;;;;;;15.80;10.52;;;19.60;60.50;;;;;;5080767;28;20063;-68
2022/05/09 00:27:06;;;;;;;13.25;10.40;;;19.60;60.50;;;;;;5061290;28;20451;-65
2022/05/09 00:29:32;;;;;;;13.20;10.35;;;19.60;60.50;;;;;;5088313;28;20035;-64
2022/05/09 00:31:58;;;;;;;11.98;9.90;;;19.60;60.50;;;;;;5089667;28;20022;-64
2022/05/09 00:34:25;;;;;;;13.80;10.32;;;19.60;60.50;;;;;;5079912;28;20047;-72
2022/05/09 00:36:55;;;;;;;12.65;9.55;;;19.50;60.30;;;;;;5077504;28;20111;-66
2022/05/09 00:39:21;;;;;;;10.68;9.45;;;19.50;60.20;;;;;;5068766;28;20060;-66
2022/05/09 00:41:47;;;;;;;10.60;9.02;;;19.50;60.20;;;;;;5086335;28;20063;-64
2022/05/09 00:44:17;;;;;;;11.52;9.07;;;19.50;60.10;;;;;;5082504;28;20036;-66
2022/05/09 00:46:47;;;;;;;10.70;9.25;;;19.40;60.10;;;;;;5061224;28;20040;-65
2022/05/09 00:49:16;;;;;;;10.57;8.88;;;19.50;60.20;;;;;;5066080;28;20118;-66
2022/05/09 00:51:45;;;;;;;11.15;8.98;;;19.40;60.20;;;;;;5081570;28;20481;-65
2022/05/09 00:54:11;;;;;;;11.38;10.13;;;19.40;60.20;;;;;;5082559;28;20029;-64
2022/05/09 00:56:45;;;;;;;12.63;8.98;;;19.40;60.30;;;;;;5078705;28;20484;-67
2022/05/09 00:59:17;;;;;;;14.10;8.77;;;19.40;60.50;;;;;;5067489;28;20050;-64
2022/05/09 01:01:45;;;;;;;13.38;8.93;;;19.30;60.50;;;;;;5088958;28;20032;-65
2022/05/09 01:04:24;;;;;;;10.63;8.95;;;19.40;60.60;;;;;;5089313;28;20054;-64
2022/05/09 01:06:50;;;;;;;10.85;9.27;;;19.30;60.60;;;;;;5079878;28;20020;-65
2022/05/09 01:09:16;;;;;;;11.15;9.00;;;19.30;60.70;;;;;;5082693;28;20032;-65
2022/05/09 01:11:43;;;;;;;12.05;9.85;;;19.30;60.80;;;;;;5082555;28;20416;-64
2022/05/09 01:14:17;;;;;;;10.30;9.15;;;19.30;61.00;;;;;;5088189;28;20024;-67
2022/05/09 01:16:43;;;;;;;10.45;9.13;;;19.20;61.10;;;;;;5087793;28;20020;-65
2022/05/09 01:19:25;;;;;;;12.90;9.82;;;19.20;61.20;;;;;;5083130;28;20024;-65
2022/05/09 01:21:51;;;;;;;12.55;9.73;;;19.20;61.40;;;;;;5084598;28;20036;-70
2022/05/09 01:24:22;;;;;;;12.25;9.80;;;19.20;61.40;;;;;;5079230;28;20166;-65
2022/05/09 01:26:49;;;;;;;11.40;10.20;;;19.20;61.50;;;;;;5084665;28;20114;-64
2022/05/09 01:29:42;;;;;;;11.65;10.10;;;19.20;61.60;;;;;;5084986;28;20431;-65
2022/05/09 01:32:11;;;;;;;12.10;9.98;;;19.20;61.80;;;;;;5090125;28;20032;-65
2022/05/09 01:34:41;;;;;;;12.50;10.10;;;19.20;61.70;;;;;;5080332;28;20028;-66
2022/05/09 01:37:09;;;;;;;12.23;10.30;;;19.20;61.80;;;;;;5088593;28;20027;-65
2022/05/09 01:39:36;;;;;;;12.20;9.98;;;19.20;61.80;;;;;;5083503;28;20038;-64
2022/05/09 01:42:09;;;;;;;14.43;10.60;;;19.30;61.80;;;;;;5085071;28;20119;-66
2022/05/09 01:44:36;;;;;;;11.98;10.15;;;19.30;61.80;;;;;;5077534;28;20111;-66
2022/05/09 01:50:05;;;;;;;12.55;10.52;;;19.30;61.80;;;;;;5084888;28;20058;-64
2022/05/09 01:52:31;;;;;;;12.75;10.70;;;19.20;61.90;;;;;;5081488;28;20063;-65
2022/05/09 01:54:56;;;;;;;14.18;11.43;;;19.20;61.80;;;;;;5088714;28;20105;-65
2022/05/09 01:57:22;;;;;;;15.88;12.25;;;19.20;61.90;;;;;;5048867;28;20026;-65
2022/05/09 01:59:48;;;;;;;16.27;11.38;;;19.20;62.10;;;;;;5077535;28;20037;-65
2022/05/09 02:02:17;;;;;;;13.65;11.13;;;19.20;62.00;;;;;;5087873;28;20024;-65
2022/05/09 02:04:44;;;;;;;14.25;11.43;;;19.20;62.10;;;;;;5084560;28;20056;-66
2022/05/09 02:07:14;;;;;;;17.50;13.30;;;19.20;62.10;;;;;;5065774;28;20786;-65
2022/05/09 02:09:45;;;;;;;15.30;12.75;;;19.10;62.10;;;;;;5085189;28;20031;-65
2022/05/09 02:12:12;;;;;;;15.82;12.15;;;19.10;62.10;;;;;;5087597;28;20056;-65
2022/05/09 02:14:39;;;;;;;14.88;12.85;;;19.10;62.20;;;;;;5086527;28;20020;-65
2022/05/09 02:17:06;;;;;;;15.65;12.88;;;19.10;62.30;;;;;;5084005;28;20032;-64
2022/05/09 02:19:32;;;;;;;18.50;12.90;;;19.10;62.30;;;;;;5083713;28;20024;-64
2022/05/09 02:21:59;;;;;;;14.77;12.57;;;19.10;62.30;;;;;;5085786;28;20396;-66
2022/05/09 02:24:27;;;;;;;14.05;12.60;;;19.10;62.10;;;;;;5079264;28;20107;-71
2022/05/09 02:26:53;;;;;;;14.25;12.77;;;19.10;62.10;;;;;;5068829;28;20035;-65
2022/05/09 02:29:18;;;;;;;14.93;13.40;;;19.00;62.10;;;;;;5081900;28;20040;-68
2022/05/09 02:31:44;;;;;;;14.20;12.43;;;19.00;62.30;;;;;;5080817;28;20036;-64
2022/05/09 02:34:10;;;;;;;15.02;12.95;;;18.90;62.40;;;;;;5063871;28;20032;-67
2022/05/09 02:36:36;;;;;;;17.08;12.70;;;18.90;62.50;;;;;;5089402;28;20020;-64
2022/05/09 02:39:01;;;;;;;16.00;13.48;;;18.90;62.70;;;;;;5090823;28;20032;-65
2022/05/09 02:41:27;;;;;;;14.63;12.40;;;18.90;62.70;;;;;;5090171;28;20048;-74
2022/05/09 02:43:53;;;;;;;13.90;12.48;;;18.90;62.70;;;;;;5075953;28;20032;-65
2022/05/09 02:46:18;;;;;;;14.32;12.55;;;18.90;62.70;;;;;;5090211;28;20024;-66
2022/05/09 02:48:45;;;;;;;16.10;12.63;;;18.90;62.60;;;;;;5089946;28;20077;-65
2022/05/09 02:51:11;;;;;;;17.65;12.35;;;18.90;62.60;;;;;;5089501;28;20054;-65
2022/05/09 02:53:37;;;;;;;13.40;12.00;;;18.90;62.50;;;;;;5089400;28;20025;-65
2022/05/09 02:56:04;;;;;;;15.63;12.25;;;18.90;62.30;;;;;;5090823;28;20012;-66
2022/05/09 02:58:30;;;;;;;13.90;11.60;;;18.80;62.20;;;;;;5067055;28;20100;-67
2022/05/09 03:00:56;;;;;;;14.07;12.38;;;18.80;62.10;;;;;;5087630;28;20045;-68
2022/05/09 03:06:07;;;;;;;15.13;11.20;;;18.80;61.80;;;;;;5084399;28;20501;-66
2022/05/09 03:08:33;;;;;;;14.85;11.73;;;18.80;61.70;;;;;;5058508;28;20028;-65
2022/05/09 03:10:59;;;;;;;16.92;12.05;;;18.70;61.70;;;;;;5083531;28;20496;-67
2022/05/09 03:13:24;;;;;;;14.32;11.52;;;18.70;61.70;;;;;;5087340;28;20032;-71
2022/05/09 03:15:51;;;;;;;16.77;11.52;;;18.60;61.80;;;;;;5089054;28;20035;-66
2022/05/09 03:18:22;;;;;;;15.10;10.73;;;18.60;62.10;;;;;;5087626;28;20035;-65
2022/05/09 03:20:48;;;;;;;13.15;10.95;;;18.60;61.70;;;;;;5089819;28;20020;-65
2022/05/09 03:23:14;;;;;;;13.45;10.63;;;18.60;61.60;;;;;;5072758;28;20016;-66
2022/05/09 03:25:41;;;;;;;13.43;11.02;;;18.60;61.60;;;;;;5072166;28;20028;-65
2022/05/09 03:28:12;;;;;;;15.55;11.30;;;18.60;61.60;;;;;;5070047;28;20021;-65
2022/05/09 03:30:39;;;;;;;13.05;10.40;;;18.60;61.40;;;;;;5072273;28;20084;-65
2022/05/09 03:33:06;;;;;;;17.42;11.40;;;18.70;61.30;;;;;;5089409;28;20032;-66
2022/05/09 03:35:32;;;;;;;19.88;11.02;;;18.70;61.30;;;;;;5089355;28;20024;-65
2022/05/09 03:37:58;;;;;;;12.65;10.75;;;18.70;61.20;;;;;;5087400;28;20032;-65
2022/05/09 03:40:23;;;;;;;13.45;10.57;;;18.70;61.10;;;;;;5089701;28;20558;-65
2022/05/09 03:42:49;;;;;;;12.13;10.65;;;18.70;61.10;;;;;;5088825;28;20562;-65
2022/05/09 03:45:15;;;;;;;14.30;10.50;;;18.70;61.00;;;;;;5062238;28;20485;-65
2022/05/09 03:47:41;;;;;;;11.75;10.35;;;18.70;61.10;;;;;;5086743;28;20096;-66
2022/05/09 03:50:09;;;;;;;13.07;9.80;;;18.60;61.00;;;;;;5089418;28;20035;-66
2022/05/09 03:52:35;;;;;;;13.02;10.88;;;18.70;61.00;;;;;;5086606;28;20488;-66
2022/05/09 03:55:02;;;;;;;12.05;10.43;;;18.70;61.00;;;;;;5073057;28;20047;-65
2022/05/09 03:57:27;;;;;;;14.15;11.30;;;18.70;61.10;;;;;;5090767;28;20028;-72
2022/05/09 03:59:53;;;;;;;12.05;10.57;;;18.70;61.10;;;;;;5082041;28;20066;-65
2022/05/09 04:02:19;;;;;;;13.35;9.90;;;18.70;61.00;;;;;;5091182;28;20392;-65
2022/05/09 04:04:44;;;;;;;14.52;10.05;;;18.70;61.10;;;;;;5074916;28;20028;-65
2022/05/09 04:07:10;;;;;;;13.02;10.48;;;18.80;61.00;;;;;;5076907;28;20028;-65
2022/05/09 04:09:36;;;;;;;12.45;9.50;;;18.80;60.90;;;;;;5093834;28;20032;-66
2022/05/09 04:12:02;;;;;;;14.88;9.70;;;18.80;60.90;;;;;;5092632;28;20448;-65
2022/05/09 04:17:14;;;;;;;12.02;10.07;;;18.80;60.70;;;;;;5084088;28;20076;-65
2022/05/09 04:19:40;;;;;;;13.35;10.75;;;18.80;60.90;;;;;;5090777;28;20032;-64
2022/05/09 04:22:06;;;;;;;12.95;10.45;;;18.90;61.00;;;;;;5083372;28;20423;-64
2022/05/09 04:24:32;;;;;;;13.40;10.35;;;18.80;60.90;;;;;;5093384;28;20021;-69
2022/05/09 04:26:59;;;;;;;17.27;11.35;;;18.80;60.90;;;;;;5076308;28;20020;-64
2022/05/09 04:29:25;;;;;;;15.10;10.25;;;18.80;61.00;;;;;;5092203;28;20117;-64
2022/05/09 04:31:51;;;;;;;13.30;10.88;;;18.90;61.10;;;;;;5093151;28;20151;-64
2022/05/09 04:34:17;;;;;;;14.75;10.88;;;18.80;61.20;;;;;;5084113;28;20125;-66
2022/05/09 04:36:42;;;;;;;16.88;11.10;;;18.90;61.40;;;;;;5091004;28;20389;-64
2022/05/09 04:39:08;;;;;;;16.75;11.85;;;18.90;61.40;;;;;;5080873;28;20066;-66
2022/05/09 04:41:36;;;;;;;14.75;10.90;;;18.80;61.40;;;;;;5073032;28;20063;-65
2022/05/09 04:44:03;;;;;;;15.90;11.60;;;18.90;61.40;;;;;;5072651;28;20493;-64
2022/05/09 04:46:29;;;;;;;12.63;11.18;;;18.90;61.60;;;;;;5086502;28;20087;-71
2022/05/09 04:48:55;;;;;;;17.02;11.82;;;18.90;61.60;;;;;;5060617;28;20042;-64
2022/05/09 04:51:22;;;;;;;14.75;11.00;;;18.90;61.60;;;;;;5086585;28;20135;-64
2022/05/09 04:53:49;;;;;;;14.15;10.80;;;18.90;61.70;;;;;;5091135;28;20024;-64
2022/05/09 04:56:16;;;;;;;14.63;11.35;;;18.90;61.60;;;;;;5093010;28;20020;-64
2022/05/09 04:58:42;;;;;;;15.55;11.32;;;18.90;61.40;;;;;;5055861;28;20075;-67
2022/05/09 05:01:08;;;;;;;17.35;10.07;;;19.00;61.40;;;;;;5072814;28;20048;-65
2022/05/09 05:03:34;;;;;;;13.48;10.52;;;19.00;61.20;;;;;;5089085;28;20040;-65
2022/05/09 05:05:59;;;;;;;15.20;11.13;;;19.00;61.30;;;;;;5069471;28;20028;-66
2022/05/09 05:08:27;;;;;;;12.80;10.50;;;19.00;61.20;;;;;;5073730;28;20032;-64
2022/05/09 05:10:54;;;;;;;13.25;11.00;;;19.00;61.20;;;;;;5081757;28;20078;-64
2022/05/09 05:13:20;;;;;;;14.27;10.80;;;19.10;61.20;;;;;;5091062;28;20024;-63
2022/05/09 05:15:47;;;;;;;12.65;10.73;;;19.10;61.20;;;;;;5057612;28;21466;-64
2022/05/09 05:18:19;;;;;;;15.25;10.82;;;19.10;61.00;;;;;;5090080;28;20040;-65
2022/05/09 05:20:45;;;;;;;16.42;11.10;;;19.10;61.00;;;;;;5063311;28;20031;-66
2022/05/09 05:23:10;;;;;;;14.18;10.23;;;19.20;60.70;;;;;;5089152;28;20028;-66
2022/05/09 05:25:37;;;;;;;17.80;10.90;;;19.30;60.40;;;;;;5085053;28;20473;-66
2022/05/09 05:28:05;;;;;;;21.33;9.98;;;19.30;60.20;;;;;;5065929;28;20043;-65
2022/05/09 05:30:32;;;;;;;23.77;10.68;;;19.50;59.90;;;;;;5084481;28;20240;-70
2022/05/09 05:32:59;;;;;;;21.98;10.43;;;19.50;59.50;;;;;;5065071;28;20028;-67
2022/05/09 05:35:25;;;;;;;19.52;10.80;;;19.60;59.40;;;;;;5083854;28;20103;-65
2022/05/09 05:37:51;;;;;;;22.58;10.63;;;19.70;58.90;;;;;;5085128;28;20114;-66
2022/05/09 05:40:17;;;;;;;15.63;10.13;;;19.70;58.70;;;;;;5065346;28;20036;-65
2022/05/09 05:42:44;;;;;;;11.52;9.85;;;19.90;58.60;;;;;;5067296;28;20024;-65
2022/05/09 05:45:12;;;;;;;14.20;9.70;;;20.00;58.00;;;;;;5064249;28;20385;-68
2022/05/09 05:47:38;;;;;;;12.68;9.32;;;20.00;58.00;;;;;;5059646;28;21512;-66
2022/05/09 05:50:07;;;;;;;18.25;9.95;;;20.10;57.90;;;;;;5079934;28;20036;-66
2022/05/09 05:52:33;;;;;;;13.07;10.25;;;20.20;57.70;;;;;;5078258;28;20238;-72
2022/05/09 05:54:59;;;;;;;12.07;9.68;;;20.30;57.40;;;;;;5076498;28;20032;-66
2022/05/09 05:57:28;;;;;;;16.63;10.32;;;20.50;57.00;;;;;;5084821;28;20028;-71
2022/05/09 05:59:59;;;;;;;14.20;9.30;;;20.60;56.70;;;;;;5084600;28;20465;-66
2022/05/09 06:02:26;;;;;;;13.05;9.25;;;20.70;56.00;;;;;;5065355;28;20103;-65
2022/05/09 06:04:52;;;;;;;14.55;9.07;;;20.70;55.80;;;;;;5082699;28;20251;-67
2022/05/09 06:07:19;;;;;;;14.23;9.10;;;20.70;55.80;;;;;;5085450;28;20024;-65
2022/05/09 06:09:47;;;;;;;11.82;9.38;;;20.80;55.70;;;;;;5083844;28;20477;-66
2022/05/09 06:12:15;;;;;;;16.45;8.63;;;21.00;55.10;;;;;;5063462;28;20028;-65
2022/05/09 06:14:41;;;;;;;13.65;9.30;;;21.10;54.70;;;;;;5083256;28;20024;-67
2022/05/09 06:17:08;;;;;;;11.95;8.48;;;21.30;54.30;;;;;;5087935;28;20031;-64
2022/05/09 06:19:34;;;;;;;13.40;7.78;;;21.40;53.50;;;;;;5085189;28;20012;-73
2022/05/09 06:22:00;;;;;;;18.27;8.77;;;21.50;52.90;;;;;;5081668;28;20058;-65
2022/05/09 06:24:26;;;;;;;25.40;9.40;;;21.60;52.50;;;;;;5083509;28;20012;-65
2022/05/09 06:26:52;;;;;;;17.00;9.15;;;21.70;52.10;;;;;;5081244;28;20229;-65
2022/05/09 06:29:18;;;;;;;19.10;9.35;;;21.90;51.60;;;;;;5089513;28;20024;-67
2022/05/09 06:31:45;;;;;;;14.10;8.20;;;22.00;51.30;;;;;;5087785;28;20024;-64
2022/05/09 06:34:13;;;;;;;17.40;9.25;;;22.10;50.70;;;;;;5087374;28;20106;-67
2022/05/09 06:36:41;;;;;;;23.70;9.55;;;22.30;50.40;;;;;;5074893;28;20016;-68
2022/05/09 06:39:09;;;;;;;25.13;9.57;;;22.40;49.60;;;;;;5085854;28;20020;-67
2022/05/09 06:41:35;;;;;;;19.25;8.65;;;22.60;49.90;;;;;;5080607;28;20047;-70
2022/05/09 06:44:01;;;;;;;16.35;8.27;;;22.90;49.50;;;;;;5071911;28;20024;-65
2022/05/09 06:46:27;;;;;;;14.35;8.25;;;23.20;48.80;;;;;;5072836;28;20431;-65
2022/05/09 06:48:53;;;;;;;13.00;8.15;;;23.40;48.10;;;;;;5084650;28;20115;-64
2022/05/09 06:51:19;;;;;;;13.10;8.68;;;23.60;47.30;;;;;;5064864;28;20441;-65
2022/05/09 06:54:05;;;;;;;18.98;8.27;;;23.70;47.00;;;;;;5089319;28;20023;-64
2022/05/09 06:56:31;;;;;;;21.90;8.27;;;24.00;46.30;;;;;;5090348;28;20471;-64
2022/05/09 06:58:57;;;;;;;30.23;9.13;;;24.50;46.20;;;;;;5090829;28;20051;-64
2022/05/09 07:01:22;;;;;;;18.52;8.93;;;24.90;44.70;;;;;;5067564;28;20055;-64
2022/05/09 07:03:48;;;;;;;17.83;9.45;;;25.10;44.00;;;;;;5090702;28;20024;-64
2022/05/09 07:06:16;;;;;;;25.52;10.70;;;25.10;44.00;;;;;;5070031;28;20036;-64
2022/05/09 07:08:42;;;;;;;16.40;8.77;;;25.10;44.00;;;;;;5090567;28;20028;-66
2022/05/09 07:11:08;;;;;;;13.13;8.98;;;25.20;43.80;;;;;;5091181;28;20495;-66
2022/05/09 07:13:35;;;;;;;16.63;8.90;;;25.20;43.60;;;;;;5087660;28;20078;-63
2022/05/09 07:16:01;;;;;;;11.55;8.68;;;25.10;43.40;;;;;;5090504;28;20518;-65
2022/05/09 07:18:28;;;;;;;13.60;9.05;;;25.10;43.90;;;;;;5089360;28;20024;-64
2022/05/09 07:20:56;;;;;;;11.45;8.80;;;25.30;43.50;;;;;;5086896;28;20019;-67
2022/05/09 07:23:21;;;;;;;11.50;7.55;;;25.60;43.30;;;;;;5090041;28;20024;-65
2022/05/09 07:25:50;;;;;;;12.25;8.23;;;26.10;42.50;;;;;;5056324;28;20362;-65
2022/05/09 07:28:19;;;;;;;19.60;8.80;;;26.30;42.20;;;;;;5072836;28;20051;-65
2022/05/09 07:30:46;;;;;;;14.90;8.55;;;26.90;41.80;;;;;;5089191;28;20020;-65
2022/05/09 07:33:18;;;;;;;16.17;8.75;;;27.00;40.40;;;;;;5086024;28;20033;-65
2022/05/09 07:35:44;;;;;;;13.40;8.75;;;27.40;40.60;;;;;;5090203;28;20111;-65
2022/05/09 07:38:13;;;;;;;15.77;7.72;;;28.50;39.00;;;;;;5088652;28;20039;-66
2022/05/09 07:40:40;;;;;;;12.00;7.53;;;30.00;37.80;;;;;;5052395;28;20131;-70
2022/05/09 07:43:17;;;;;;;8.63;7.38;;;31.40;35.80;;;;;;5075431;28;20021;-65
2022/05/09 07:45:43;;;;;;;16.73;8.18;;;32.70;34.00;;;;;;5085387;28;20032;-67
2022/05/09 07:48:10;;;;;;;16.20;8.20;;;34.30;32.30;;;;;;5072584;28;20481;-65
2022/05/09 07:50:36;;;;;;;22.90;7.90;;;35.90;31.50;;;;;;5083291;28;20131;-65
2022/05/09 07:53:11;;;;;;;13.35;9.15;;;38.20;29.00;;;;;;5088358;28;20588;-66
2022/05/09 07:55:38;;;;;;;11.48;7.57;;;38.80;28.40;;;;;;5072345;28;20028;-65
2022/05/09 07:58:04;;;;;;;16.30;7.18;;;40.20;27.40;;;;;;5085385;28;20028;-64
2022/05/09 08:00:30;;;;;;;10.80;6.65;;;41.10;27.00;;;;;;5068798;28;20028;-71
2022/05/09 08:02:55;;;;;;;12.13;6.43;;;41.90;26.60;;;;;;5060149;28;20039;-67
2022/05/09 08:05:21;;;;;;;23.80;13.93;;;42.00;26.20;;;;;;5086794;28;20047;-65
2022/05/09 08:07:49;;;;;;;25.02;11.48;;;42.10;25.90;;;;;;5064503;28;20449;-64
2022/05/09 08:10:16;;;;;;;12.18;8.05;;;43.00;25.60;;;;;;5072385;28;20428;-67
2022/05/09 08:12:42;;;;;;;15.45;11.00;;;44.00;25.00;;;;;;5070988;28;20499;-72
2022/05/09 08:15:11;;;;;;;13.25;8.82;;;44.70;24.60;;;;;;5070104;28;20020;-65
2022/05/09 08:17:37;;;;;;;13.38;6.80;;;45.30;24.30;;;;;;5076494;28;20080;-67
2022/05/09 08:20:03;;;;;;;9.30;6.78;;;45.80;24.10;;;;;;5065340;28;20112;-67
2022/05/09 08:22:31;;;;;;;26.77;7.32;;;46.10;23.70;;;;;;5088620;28;20020;-65
2022/05/09 08:24:59;;;;;;;9.60;7.00;;;46.70;23.70;;;;;;5063789;28;20115;-66
2022/05/09 08:27:25;;;;;;;12.57;6.50;;;47.10;23.30;;;;;;5076745;28;20037;-66
2022/05/09 08:29:54;;;;;;;19.08;8.07;;;48.00;23.20;;;;;;5087114;28;20036;-66
2022/05/09 08:32:20;;;;;;;14.35;7.78;;;48.30;22.60;;;;;;5082594;28;20485;-68
2022/05/09 08:34:46;;;;;;;14.63;8.65;;;48.80;22.50;;;;;;5084168;28;20016;-65
2022/05/09 08:39:55;;;;;;;15.80;7.80;;;48.70;22.20;;;;;;5085927;28;20050;-66
2022/05/09 08:42:41;;;;;;;11.52;6.53;;;48.50;21.80;;;;;;5073631;28;20062;-64
2022/05/09 08:45:17;;;;;;;19.55;7.82;;;48.30;22.00;;;;;;5067201;28;20489;-65
2022/05/09 08:48:04;;;;;;;17.02;8.10;;;47.90;21.90;;;;;;5086991;28;20043;-73
2022/05/09 08:50:48;;;;;;;11.05;7.03;;;46.90;22.20;;;;;;5065890;28;20036;-62
2022/05/09 08:53:24;;;;;;;12.55;8.48;;;45.90;22.20;;;;;;5090630;28;20017;-63
2022/05/09 08:55:52;;;;;;;15.55;7.28;;;45.30;22.60;;;;;;5068074;28;20012;-63
2022/05/09 08:58:57;;;;;;;17.95;7.50;;;45.10;22.90;;;;;;5081444;28;20477;-63
2022/05/09 09:01:41;;;;;;;23.35;9.82;;;45.10;22.90;;;;;;5084814;28;20103;-65
2022/05/09 09:04:19;;;;;;;13.98;7.88;;;45.10;22.90;;;;;;5074860;28;20024;-65
2022/05/09 09:07:06;;;;;;;9.07;5.88;;;44.70;22.90;;;;;;5071904;28;20107;-72
2022/05/09 09:09:51;;;;;;;13.15;6.78;;;43.50;23.20;;;;;;5067155;28;20020;-64
2022/05/09 09:12:20;;;;;;;9.57;6.10;;;39.70;24.50;;;;;;5081112;28;20036;-64
2022/05/09 09:15:11;;;;;;;10.98;7.35;;;37.00;26.40;;;;;;5061442;28;20034;-72
2022/05/09 09:17:49;;;;;;;13.07;7.32;;;35.00;28.20;;;;;;5089868;28;20073;-65
2022/05/09 09:20:46;;;;;;;14.10;7.20;;;33.60;29.70;;;;;;5086607;28;20032;-65
2022/05/09 09:23:32;;;;;;;19.02;8.55;;;32.70;30.00;;;;;;5078847;28;20102;-62
2022/05/09 09:26:12;;;;;;;18.80;7.90;;;31.70;30.90;;;;;;5083806;28;20032;-61
2022/05/09 09:29:26;;;;;;;26.38;8.93;;;30.60;32.40;;;;;;5083886;28;20028;-63
2022/05/09 09:32:09;;;;;;;10.88;6.63;;;30.10;33.60;;;;;;5070240;28;20073;-64
2022/05/09 09:34:56;;;;;;;23.10;8.80;;;29.70;34.00;;;;;;5089671;28;20021;-63
2022/05/09 09:37:56;;;;;;;17.08;7.97;;;29.30;34.50;;;;;;5092615;28;20027;-61
2022/05/09 09:40:21;;;;;;;13.60;8.18;;;29.00;35.50;;;;;;5088474;28;20027;-62
2022/05/09 09:42:55;;;;;;;20.10;8.77;;;28.50;35.80;;;;;;5091829;28;20103;-72
2022/05/09 09:45:44;;;;;;;20.08;10.43;;;27.90;37.00;;;;;;5090573;28;20016;-62
2022/05/09 09:48:21;;;;;;;20.42;8.77;;;27.50;37.30;;;;;;5073592;28;20095;-62
2022/05/09 09:51:07;;;;;;;18.60;11.18;;;27.40;38.00;;;;;;5090678;28;20016;-74
2022/05/09 09:54:01;;;;;;;34.08;11.13;;;27.20;38.50;;;;;;5062918;28;20129;-64
2022/05/09 09:56:34;;;;;;;13.15;8.73;;;27.00;39.40;;;;;;5092400;28;20076;-64
2022/05/09 09:59:09;;;;;;;12.35;8.07;;;26.80;39.30;;;;;;5071583;28;20020;-63
2022/05/09 10:01:35;;;;;;;15.63;8.75;;;26.90;39.40;;;;;;5086524;28;20119;-64
2022/05/09 10:04:09;;;;;;;19.35;9.32;;;26.80;39.40;;;;;;5072570;28;20406;-64
2022/05/09 10:06:55;;;;;;;12.10;7.85;;;26.80;39.70;;;;;;5090671;28;20029;-70
2022/05/09 10:09:22;;;;;;;11.38;7.85;;;26.80;39.50;;;;;;5089940;28;20086;-63
2022/05/09 10:11:48;;;;;;;16.55;8.75;;;26.80;39.30;;;;;;5070384;28;20174;-71
2022/05/09 10:14:35;;;;;;;27.60;13.23;;;26.70;39.60;;;;;;5073609;28;20029;-63
2022/05/09 10:17:33;;;;;;;21.13;15.07;;;26.80;39.80;;;;;;5085408;28;20028;-65
2022/05/09 10:20:18;;;;;;;46.15;39.83;;;26.70;40.00;;;;;;5070442;28;20401;-64
2022/05/09 10:25:30;;;;;;;16.63;10.55;;;26.60;39.60;;;;;;5091767;28;20373;-65
2022/05/09 10:28:12;;;;;;;19.85;9.80;;;26.60;40.00;;;;;;5073757;28;20103;-63
2022/05/09 10:30:40;;;;;;;14.82;9.00;;;26.60;40.20;;;;;;5090273;28;20480;-63
2022/05/09 10:33:32;;;;;;;16.63;9.73;;;26.70;39.90;;;;;;5087720;28;20464;-64
2022/05/09 10:36:04;;;;;;;18.45;11.98;;;26.70;39.50;;;;;;5087136;28;20012;-63
2022/05/09 10:38:40;;;;;;;8.90;6.07;;;26.80;39.80;;;;;;5091180;28;20101;-66
2022/05/09 10:41:26;;;;;;;10.32;5.38;;;26.50;38.80;;;;;;5090358;28;20055;-64
2022/05/09 10:44:06;;;;;;;22.88;7.90;;;26.60;38.40;;;;;;5063631;28;20473;-70
2022/05/09 10:46:40;;;;;;;16.95;8.27;;;26.60;38.30;;;;;;5059594;28;20055;-64
2022/05/09 10:49:12;;;;;;;;;;;26.40;37.30;;;;;;5052670;28;20538;-66
2022/05/09 10:51:54;;;;;;;15.23;6.00;;;26.30;37.20;;;;;;5067194;28;19908;-64
2022/05/09 10:54:36;;;;;;;13.10;6.30;;;26.10;37.80;;;;;;5088626;28;20031;-64
2022/05/09 10:57:15;;;;;;;15.57;5.60;;;26.00;38.00;;;;;;5090244;28;20024;-63
2022/05/09 10:59:45;;;;;;;17.98;6.30;;;26.00;38.30;;;;;;5082646;28;20484;-66
2022/05/09 11:02:34;;;;;;;16.05;6.43;;;25.90;38.50;;;;;;5085858;28;20142;-65
2022/05/09 11:05:01;;;;;;;14.80;5.90;;;25.80;38.20;;;;;;5090364;28;20560;-66
2022/05/09 11:07:43;;;;;;;12.98;5.72;;;26.00;38.00;;;;;;5079874;28;20016;-67
2022/05/09 11:10:15;;;;;;;14.95;6.15;;;26.20;37.30;;;;;;5088278;28;20020;-65
2022/05/09 11:13:09;;;;;;;24.42;10.98;;;26.30;37.60;;;;;;5090275;28;20477;-65
2022/05/09 11:15:59;;;;;;;17.52;7.50;;;26.20;37.30;;;;;;5083609;28;20028;-65
2022/05/09 11:18:39;;;;;;;12.63;6.15;;;26.00;37.70;;;;;;5085171;28;20052;-66
2022/05/09 11:21:14;;;;;;;17.38;6.95;;;25.90;37.90;;;;;;5064759;28;20126;-65
2022/05/09 11:23:43;;;;;;;24.52;7.95;;;26.00;38.90;;;;;;5089321;28;20111;-66
2022/05/09 11:26:31;;;;;;;15.32;8.55;;;26.30;39.70;;;;;;5089497;28;20099;-66
2022/05/09 11:29:35;;;;;;;18.13;11.15;;;26.40;39.70;;;;;;5055020;28;20024;-66
2022/05/09 11:32:17;;;;;;;15.13;8.55;;;26.70;39.10;;;;;;5060743;28;20026;-66
2022/05/09 11:35:02;;;;;;;26.38;12.63;;;26.70;39.30;;;;;;5090702;28;20035;-64
2022/05/09 11:37:50;;;;;;;26.15;16.10;;;26.70;38.20;;;;;;5063241;28;20024;-65
2022/05/09 11:40:52;;;;;;;11.52;7.57;;;26.90;38.50;;;;;;5070924;28;20175;-65
2022/05/09 11:44:07;;;;;;;21.30;10.00;;;26.90;38.60;;;;;;5082115;28;20073;-65
2022/05/09 11:47:03;;;;;;;13.68;6.80;;;26.80;36.30;;;;;;5011818;28;20044;-64
2022/05/09 11:50:03;;;;;;;57.30;40.25;;;26.70;36.20;;;;;;5070517;28;20117;-65
2022/05/09 11:52:37;;;;;;;20.75;12.15;;;26.50;36.70;;;;;;5089453;28;20099;-64
2022/05/09 11:55:15;;;;;;;27.92;6.95;;;26.60;36.70;;;;;;5063549;28;20031;-64
2022/05/09 11:57:46;;;;;;;17.15;7.35;;;26.70;38.00;;;;;;5062715;28;20028;-63
2022/05/09 12:00:35;;;;;;;8.98;5.13;;;26.90;37.60;;;;;;5082602;28;20115;-68
2022/05/09 12:03:09;;;;;;;12.13;5.80;;;27.00;37.20;;;;;;5082838;28;20032;-63
2022/05/09 12:05:35;;;;;;;10.85;5.80;;;27.20;37.80;;;;;;5079923;28;20058;-63
2022/05/09 12:08:21;;;;;;;13.30;5.60;;;27.30;37.10;;;;;;5087715;28;20051;-66
2022/05/09 12:11:29;;;;;;;15.40;5.78;;;27.30;35.10;;;;;;5089293;28;20023;-63
2022/05/09 12:13:57;;;;;;;33.08;24.40;;;27.30;35.10;;;;;;5058139;28;20097;-71
2022/05/09 12:19:34;;;;;;;31.88;13.15;;;27.50;36.50;;;;;;5079949;28;20424;-62
2022/05/09 12:22:35;;;;;;;9.27;7.47;;;27.60;36.80;;;;;;5068982;28;20020;-69
2022/05/09 12:25:05;;;;;;;19.67;8.02;;;27.50;36.40;;;;;;5070088;28;20028;-64
2022/05/09 12:27:43;;;;;;;17.38;6.57;;;27.40;36.90;;;;;;5088677;28;20024;-62
2022/05/09 12:30:40;;;;;;;19.80;6.10;;;27.30;36.80;;;;;;5067820;28;20039;-63
2022/05/09 12:33:19;;;;;;;25.05;14.88;;;27.10;35.60;;;;;;5058969;28;20047;-66
2022/05/09 12:35:47;;;;;;;16.73;7.53;;;27.00;35.60;;;;;;5066635;28;20181;-65
2022/05/09 12:38:14;;;;;;;36.50;27.23;;;27.00;36.60;;;;;;5087598;28;20017;-66
2022/05/09 12:40:40;;;;;;;19.63;11.80;;;27.30;35.40;;;;;;5091913;28;20510;-64
2022/05/09 12:43:08;;;;;;;7.22;4.70;;;27.30;35.10;;;;;;5090158;28;20087;-64
2022/05/09 12:45:36;;;;;;;14.90;6.60;;;27.50;35.60;;;;;;5091391;28;20111;-66
2022/05/09 12:48:03;;;;;;;31.10;22.38;;;27.80;35.40;;;;;;5084011;28;20024;-64
2022/05/09 12:50:33;;;;;;;18.45;6.50;;;27.90;34.50;;;;;;5074100;28;20032;-67
2022/05/09 12:53:03;;;;;;;10.68;6.03;;;27.90;34.30;;;;;;5089231;28;20016;-71
2022/05/09 12:55:52;;;;;;;8.15;4.78;;;28.00;35.20;;;;;;5088308;28;20363;-67
2022/05/09 12:58:38;;;;;;;13.95;6.88;;;28.10;34.80;;;;;;5046706;28;20034;-66
2022/05/09 13:01:12;;;;;;;10.00;5.00;;;28.10;35.20;;;;;;5066081;28;20339;-64
2022/05/09 13:04:02;;;;;;;;;;;28.20;35.20;;;;;;5093395;28;20020;-64
2022/05/09 13:06:40;;;;;;;24.92;8.32;;;28.20;35.10;;;;;;5073367;28;19904;-63
2022/05/09 13:09:13;;;;;;;25.30;6.18;;;28.10;35.40;;;;;;5072393;28;20016;-65
2022/05/09 13:11:39;;;;;;;12.70;5.93;;;28.10;35.40;;;;;;5071579;28;20036;-63